sensor_id;sensor_type;location;lat;lon;timestamp;pressure;altitude;pressure_sealevel;temperature;humidity
40460;BME280;26164;51.138;16.952;2024-02-16T00:01:35;75470.03;;;-146.39;41.92
40460;BME280;26164;51.138;16.952;2024-02-16T00:04:07;75457.78;;;-146.39;41.63
40460;BME280;26164;51.138;16.952;2024-02-16T00:06:48;75457.78;;;-146.39;41.59
40460;BME280;26164;51.138;16.952;2024-02-16T00:09:26;75421.03;;;-146.39;40.82
40460;BME280;26164;51.138;16.952;2024-02-16T00:12:08;75298.59;;;-146.39;39.62
40460;BME280;26164;51.138;16.952;2024-02-16T00:15:15;75372.06;;;-146.39;40.46
40460;BME280;26164;51.138;16.952;2024-02-16T00:18:08;75412.88;;;-146.39;40.78
40460;BME280;26164;51.138;16.952;2024-02-16T00:20:34;75419.00;;;-146.39;40.68
40460;BME280;26164;51.138;16.952;2024-02-16T00:23:00;75339.41;;;-146.39;40.00
40460;BME280;26164;51.138;16.952;2024-02-16T00:25:26;75449.63;;;-146.39;40.99
40460;BME280;26164;51.138;16.952;2024-02-16T00:27:52;75492.47;;;-146.39;41.90
40460;BME280;26164;51.138;16.952;2024-02-16T00:30:22;75455.75;;;-146.39;41.66
40460;BME280;26164;51.138;16.952;2024-02-16T00:32:48;75478.19;;;-146.39;41.82
40460;BME280;26164;51.138;16.952;2024-02-16T00:35:23;75412.88;;;-146.39;41.15
40460;BME280;26164;51.138;16.952;2024-02-16T00:37:49;75453.69;;;-146.39;41.21
40460;BME280;26164;51.138;16.952;2024-02-16T00:40:18;75427.16;;;-146.39;41.00
40460;BME280;26164;51.138;16.952;2024-02-16T00:42:44;75412.88;;;-146.39;40.57
40460;BME280;26164;51.138;16.952;2024-02-16T00:45:12;75519.00;;;-146.39;41.86
40460;BME280;26164;51.138;16.952;2024-02-16T00:47:38;75527.16;;;-146.39;42.10
40460;BME280;26164;51.138;16.952;2024-02-16T00:50:06;75519.00;;;-146.39;42.29
40460;BME280;26164;51.138;16.952;2024-02-16T00:52:35;75514.94;;;-146.39;42.08
40460;BME280;26164;51.138;16.952;2024-02-16T00:55:02;75492.47;;;-146.39;41.91
40460;BME280;26164;51.138;16.952;2024-02-16T00:57:29;75421.03;;;-146.39;40.67
40460;BME280;26164;51.138;16.952;2024-02-16T01:00:05;75425.13;;;-146.39;40.70
40460;BME280;26164;51.138;16.952;2024-02-16T01:02:36;75467.97;;;-146.39;40.77
40460;BME280;26164;51.138;16.952;2024-02-16T01:05:07;75486.34;;;-146.39;41.79
40460;BME280;26164;51.138;16.952;2024-02-16T01:07:37;75416.97;;;-146.39;40.41
40460;BME280;26164;51.138;16.952;2024-02-16T01:10:06;75406.75;;;-146.39;40.16
40460;BME280;26164;51.138;16.952;2024-02-16T01:12:34;75402.69;;;-146.39;40.13
40460;BME280;26164;51.138;16.952;2024-02-16T01:15:03;75402.69;;;-146.39;40.51
40460;BME280;26164;51.138;16.952;2024-02-16T01:17:31;75384.31;;;-146.39;39.97
40460;BME280;26164;51.138;16.952;2024-02-16T01:20:01;75372.06;;;-146.39;39.77
40460;BME280;26164;51.138;16.952;2024-02-16T01:30:42;75482.28;;;-146.39;40.78
40460;BME280;26164;51.138;16.952;2024-02-16T01:33:09;75457.78;;;-146.39;40.85
40460;BME280;26164;51.138;16.952;2024-02-16T01:35:38;75441.44;;;-146.39;40.49
40460;BME280;26164;51.138;16.952;2024-02-16T01:38:05;75470.03;;;-146.39;41.01
40460;BME280;26164;51.138;16.952;2024-02-16T01:40:31;75412.88;;;-146.39;40.20
40460;BME280;26164;51.138;16.952;2024-02-16T01:42:59;75421.03;;;-146.39;40.00
40460;BME280;26164;51.138;16.952;2024-02-16T01:45:25;75408.78;;;-146.39;40.17
40460;BME280;26164;51.138;16.952;2024-02-16T01:47:53;75394.50;;;-146.39;40.38
40460;BME280;26164;51.138;16.952;2024-02-16T01:50:19;75412.88;;;-146.39;39.93
40460;BME280;26164;51.138;16.952;2024-02-16T01:53:00;75449.63;;;-146.39;40.52
40460;BME280;26164;51.138;16.952;2024-02-16T01:55:31;75457.78;;;-146.39;40.53
40460;BME280;26164;51.138;16.952;2024-02-16T01:57:59;75445.53;;;-146.39;40.99
40460;BME280;26164;51.138;16.952;2024-02-16T02:00:26;75508.81;;;-146.39;41.18
40460;BME280;26164;51.138;16.952;2024-02-16T02:02:54;75461.84;;;-146.39;41.10
40460;BME280;26164;51.138;16.952;2024-02-16T02:05:20;75445.53;;;-146.39;40.99
40460;BME280;26164;51.138;16.952;2024-02-16T02:07:51;75400.63;;;-146.39;40.38
40460;BME280;26164;51.138;16.952;2024-02-16T02:10:17;75502.69;;;-146.39;41.67
40460;BME280;26164;51.138;16.952;2024-02-16T02:12:44;75514.94;;;-146.39;41.62
40460;BME280;26164;51.138;16.952;2024-02-16T02:15:58;75431.25;;;-146.39;40.71
40460;BME280;26164;51.138;16.952;2024-02-16T02:28:56;75447.56;;;-146.39;40.66
40460;BME280;26164;51.138;16.952;2024-02-16T02:31:27;75465.94;;;-146.39;41.13
40460;BME280;26164;51.138;16.952;2024-02-16T02:33:53;75563.91;;;-146.39;42.14
40460;BME280;26164;51.138;16.952;2024-02-16T02:36:20;75506.75;;;-146.39;41.75
40460;BME280;26164;51.138;16.952;2024-02-16T02:38:47;75498.59;;;-146.39;41.59
40460;BME280;26164;51.138;16.952;2024-02-16T02:41:17;75396.56;;;-146.39;40.14
40460;BME280;26164;51.138;16.952;2024-02-16T02:43:45;75441.44;;;-146.39;40.38
40460;BME280;26164;51.138;16.952;2024-02-16T02:46:15;75437.38;;;-146.39;40.53
40460;BME280;26164;51.138;16.952;2024-02-16T02:48:45;75506.75;;;-146.39;41.50
40460;BME280;26164;51.138;16.952;2024-02-16T02:51:12;75596.56;;;-146.39;42.61
40460;BME280;26164;51.138;16.952;2024-02-16T02:53:39;75514.94;;;-146.39;42.05
40460;BME280;26164;51.138;16.952;2024-02-16T02:56:09;75547.59;;;-146.39;41.91
40460;BME280;26164;51.138;16.952;2024-02-16T02:58:35;75535.34;;;-146.39;41.88
40460;BME280;26164;51.138;16.952;2024-02-16T03:01:03;75506.75;;;-146.39;41.27
40460;BME280;26164;51.138;16.952;2024-02-16T03:03:31;75527.16;;;-146.39;42.00
40460;BME280;26164;51.138;16.952;2024-02-16T03:06:00;75514.94;;;-146.39;41.62
40460;BME280;26164;51.138;16.952;2024-02-16T03:08:26;75543.50;;;-146.39;42.02
40460;BME280;26164;51.138;16.952;2024-02-16T03:10:53;75541.47;;;-146.39;41.98
40460;BME280;26164;51.138;16.952;2024-02-16T03:13:23;75592.47;;;-146.39;42.60
40460;BME280;26164;51.138;16.952;2024-02-16T03:15:54;75612.88;;;-146.39;43.35
40460;BME280;26164;51.138;16.952;2024-02-16T03:18:29;75572.06;;;-146.39;43.08
40460;BME280;26164;51.138;16.952;2024-02-16T03:24:25;75598.59;;;-146.39;43.27
40460;BME280;26164;51.138;16.952;2024-02-16T03:26:56;75633.31;;;-146.39;42.88
40460;BME280;26164;51.138;16.952;2024-02-16T03:29:43;75568.00;;;-146.39;42.98
40460;BME280;26164;51.138;16.952;2024-02-16T03:32:18;75604.72;;;-146.39;42.87
40460;BME280;26164;51.138;16.952;2024-02-16T03:34:59;75478.19;;;-146.39;41.42
40460;BME280;26164;51.138;16.952;2024-02-16T03:37:26;75555.75;;;-146.39;42.41
40460;BME280;26164;51.138;16.952;2024-02-16T03:39:52;75576.16;;;-146.39;42.18
40460;BME280;26164;51.138;16.952;2024-02-16T03:42:20;75541.47;;;-146.39;41.79
40460;BME280;26164;51.138;16.952;2024-02-16T03:44:47;75445.53;;;-146.39;41.01
40460;BME280;26164;51.138;16.952;2024-02-16T03:47:14;75543.50;;;-146.39;42.11
40460;BME280;26164;51.138;16.952;2024-02-16T03:49:43;75449.63;;;-146.39;40.78
40460;BME280;26164;51.138;16.952;2024-02-16T03:52:09;75570.03;;;-146.39;42.09
40460;BME280;26164;51.138;16.952;2024-02-16T03:54:35;75568.00;;;-146.39;42.27
40460;BME280;26164;51.138;16.952;2024-02-16T03:57:02;75523.09;;;-146.39;41.31
40460;BME280;26164;51.138;16.952;2024-02-16T03:59:29;75437.38;;;-146.39;40.85
40460;BME280;26164;51.138;16.952;2024-02-16T04:01:56;75527.16;;;-146.39;41.28
40460;BME280;26164;51.138;16.952;2024-02-16T04:04:22;75594.53;;;-146.39;42.61
40460;BME280;26164;51.138;16.952;2024-02-16T04:06:50;75555.75;;;-146.39;41.95
40460;BME280;26164;51.138;16.952;2024-02-16T04:09:16;75661.88;;;-146.39;43.50
40460;BME280;26164;51.138;16.952;2024-02-16T04:11:45;75470.03;;;-146.39;41.58
40460;BME280;26164;51.138;16.952;2024-02-16T04:14:12;75561.88;;;-146.39;42.03
40460;BME280;26164;51.138;16.952;2024-02-16T04:16:43;75519.00;;;-146.39;41.94
40460;BME280;26164;51.138;16.952;2024-02-16T04:19:09;75539.41;;;-146.39;41.73
40460;BME280;26164;51.138;16.952;2024-02-16T04:21:38;75470.03;;;-146.39;41.12
40460;BME280;26164;51.138;16.952;2024-02-16T04:24:05;75539.41;;;-146.39;41.89
40460;BME280;26164;51.138;16.952;2024-02-16T04:26:32;75527.16;;;-146.39;41.35
40460;BME280;26164;51.138;16.952;2024-02-16T04:28:57;75543.50;;;-146.39;41.64
40460;BME280;26164;51.138;16.952;2024-02-16T04:31:27;75482.28;;;-146.39;40.80
40460;BME280;26164;51.138;16.952;2024-02-16T04:33:52;75576.16;;;-146.39;41.73
40460;BME280;26164;51.138;16.952;2024-02-16T04:36:20;75514.94;;;-146.39;41.07
40460;BME280;26164;51.138;16.952;2024-02-16T04:38:46;75527.16;;;-146.39;41.39
40460;BME280;26164;51.138;16.952;2024-02-16T04:41:12;75600.66;;;-146.39;41.96
40460;BME280;26164;51.138;16.952;2024-02-16T04:43:43;75559.81;;;-146.39;42.14
40460;BME280;26164;51.138;16.952;2024-02-16T04:46:17;75559.81;;;-146.39;41.56
40460;BME280;26164;51.138;16.952;2024-02-16T04:49:00;75551.66;;;-146.39;41.25
40460;BME280;26164;51.138;16.952;2024-02-16T04:51:46;75649.63;;;-146.39;42.49
40460;BME280;26164;51.138;16.952;2024-02-16T04:54:16;75598.59;;;-146.39;41.94
40460;BME280;26164;51.138;16.952;2024-02-16T04:57:02;75582.28;;;-146.39;41.60
40460;BME280;26164;51.138;16.952;2024-02-16T04:59:29;75606.78;;;-146.39;42.05
40460;BME280;26164;51.138;16.952;2024-02-16T05:01:57;75659.84;;;-146.39;42.65
40460;BME280;26164;51.138;16.952;2024-02-16T05:04:25;75568.00;;;-146.39;41.71
40460;BME280;26164;51.138;16.952;2024-02-16T05:06:51;75604.72;;;-146.39;41.75
40460;BME280;26164;51.138;16.952;2024-02-16T05:09:20;75649.63;;;-146.39;42.14
40460;BME280;26164;51.138;16.952;2024-02-16T05:11:47;75727.19;;;-146.39;43.27
40460;BME280;26164;51.138;16.952;2024-02-16T05:14:28;75645.56;;;-146.39;42.16
40460;BME280;26164;51.138;16.952;2024-02-16T05:16:56;75653.72;;;-146.39;42.28
40460;BME280;26164;51.138;16.952;2024-02-16T05:20:04;75665.97;;;-146.39;42.78
40460;BME280;26164;51.138;16.952;2024-02-16T05:23:03;75751.69;;;-146.39;43.20
40460;BME280;26164;51.138;16.952;2024-02-16T05:25:30;75559.81;;;-146.39;41.10
40460;BME280;26164;51.138;16.952;2024-02-16T05:27:56;75661.88;;;-146.39;41.57
40460;BME280;26164;51.138;16.952;2024-02-16T05:30:23;75619.00;;;-146.39;41.97
40460;BME280;26164;51.138;16.952;2024-02-16T05:32:49;75653.72;;;-146.39;41.95
40460;BME280;26164;51.138;16.952;2024-02-16T05:35:18;75584.31;;;-146.39;41.21
40460;BME280;26164;51.138;16.952;2024-02-16T05:37:47;75739.44;;;-146.39;43.71
40460;BME280;26164;51.138;16.952;2024-02-16T05:40:19;75633.31;;;-146.39;42.63
40460;BME280;26164;51.138;16.952;2024-02-16T05:42:57;75588.41;;;-146.39;41.64
40460;BME280;26164;51.138;16.952;2024-02-16T05:45:24;75688.41;;;-146.39;42.36
40460;BME280;26164;51.138;16.952;2024-02-16T05:47:52;75633.31;;;-146.39;41.43
40460;BME280;26164;51.138;16.952;2024-02-16T05:50:20;75653.72;;;-146.39;42.86
40460;BME280;26164;51.138;16.952;2024-02-16T05:52:46;75694.53;;;-146.39;42.74
40460;BME280;26164;51.138;16.952;2024-02-16T05:55:14;75551.66;;;-146.39;40.81
40460;BME280;26164;51.138;16.952;2024-02-16T05:57:39;75627.19;;;-146.39;41.42
40460;BME280;26164;51.138;16.952;2024-02-16T06:00:07;75661.88;;;-146.39;41.84
40460;BME280;26164;51.138;16.952;2024-02-16T06:02:36;75623.09;;;-146.39;41.43
40460;BME280;26164;51.138;16.952;2024-02-16T06:05:03;75694.53;;;-146.39;42.29
40460;BME280;26164;51.138;16.952;2024-02-16T06:07:29;75614.94;;;-146.39;41.48
40460;BME280;26164;51.138;16.952;2024-02-16T06:09:56;75690.44;;;-146.39;41.49
40460;BME280;26164;51.138;16.952;2024-02-16T06:12:23;75668.00;;;-146.39;41.68
40460;BME280;26164;51.138;16.952;2024-02-16T06:14:52;75721.06;;;-146.39;42.69
40460;BME280;26164;51.138;16.952;2024-02-16T06:17:20;75665.97;;;-146.39;42.00
40460;BME280;26164;51.138;16.952;2024-02-16T06:19:46;75727.19;;;-146.39;42.55
40460;BME280;26164;51.138;16.952;2024-02-16T06:22:14;75645.56;;;-146.39;41.56
40460;BME280;26164;51.138;16.952;2024-02-16T06:24:50;75678.19;;;-146.39;42.15
40460;BME280;26164;51.138;16.952;2024-02-16T06:27:22;75743.53;;;-146.39;42.67
40460;BME280;26164;51.138;16.952;2024-02-16T06:30:05;75616.97;;;-146.39;41.53
40460;BME280;26164;51.138;16.952;2024-02-16T06:32:35;75627.19;;;-146.39;41.29
40460;BME280;26164;51.138;16.952;2024-02-16T06:35:02;75702.69;;;-146.39;42.25
40460;BME280;26164;51.138;16.952;2024-02-16T06:37:43;75645.56;;;-146.39;41.34
40460;BME280;26164;51.138;16.952;2024-02-16T06:40:27;75592.47;;;-146.39;40.45
40460;BME280;26164;51.138;16.952;2024-02-16T06:43:09;75645.56;;;-146.39;40.32
40460;BME280;26164;51.138;16.952;2024-02-16T06:45:52;75610.84;;;-146.39;40.66
40460;BME280;26164;51.138;16.952;2024-02-16T06:48:35;75676.16;;;-146.39;41.10
40460;BME280;26164;51.138;16.952;2024-02-16T06:51:11;75559.81;;;-146.39;40.69
40460;BME280;26164;51.138;16.952;2024-02-16T06:53:39;75665.97;;;-146.39;41.38
40460;BME280;26164;51.138;16.952;2024-02-16T06:56:21;75665.97;;;-146.39;41.52
40460;BME280;26164;51.138;16.952;2024-02-16T06:58:56;75604.72;;;-146.39;40.86
40460;BME280;26164;51.138;16.952;2024-02-16T07:01:23;75588.41;;;-146.39;40.43
40460;BME280;26164;51.138;16.952;2024-02-16T07:04:04;75647.59;;;-146.39;40.98
40460;BME280;26164;51.138;16.952;2024-02-16T07:06:45;75657.78;;;-146.39;41.04
40460;BME280;26164;51.138;16.952;2024-02-16T07:09:29;75590.44;;;-146.39;40.68
40460;BME280;26164;51.138;16.952;2024-02-16T07:12:11;75596.56;;;-146.39;40.46
40460;BME280;26164;51.138;16.952;2024-02-16T07:14:41;75608.81;;;-146.39;40.20
40460;BME280;26164;51.138;16.952;2024-02-16T07:17:07;75643.50;;;-146.39;40.30
40460;BME280;26164;51.138;16.952;2024-02-16T07:19:39;75592.47;;;-146.39;40.29
40460;BME280;26164;51.138;16.952;2024-02-16T07:22:05;75610.84;;;-146.39;40.22
40460;BME280;26164;51.138;16.952;2024-02-16T07:24:49;75559.81;;;-146.39;39.78
40460;BME280;26164;51.138;16.952;2024-02-16T07:27:17;75531.25;;;-146.39;39.24
40460;BME280;26164;51.138;16.952;2024-02-16T07:29:46;75553.69;;;-146.39;39.51
40460;BME280;26164;51.138;16.952;2024-02-16T07:32:30;75472.06;;;-146.39;38.67
40460;BME280;26164;51.138;16.952;2024-02-16T07:34:59;75470.03;;;-146.39;38.54
40460;BME280;26164;51.138;16.952;2024-02-16T07:37:28;75419.00;;;-146.39;37.91
40460;BME280;26164;51.138;16.952;2024-02-16T07:40:10;75453.69;;;-146.39;38.22
40460;BME280;26164;51.138;16.952;2024-02-16T07:42:58;75484.31;;;-146.39;38.22
40460;BME280;26164;51.138;16.952;2024-02-16T07:45:39;75408.78;;;-146.39;37.98
40460;BME280;26164;51.138;16.952;2024-02-16T07:48:21;75441.44;;;-146.39;38.13
40460;BME280;26164;51.138;16.952;2024-02-16T07:51:02;75474.09;;;-146.39;38.49
40460;BME280;26164;51.138;16.952;2024-02-16T07:54:06;75351.66;;;-146.39;37.62
40460;BME280;26164;51.138;16.952;2024-02-16T07:56:58;75302.66;;;-146.39;36.85
40460;BME280;26164;51.138;16.952;2024-02-16T07:59:40;75292.47;;;-146.39;36.40
40460;BME280;26164;51.138;16.952;2024-02-16T08:02:22;75310.84;;;-146.39;36.77
40460;BME280;26164;51.138;16.952;2024-02-16T08:05:03;75343.50;;;-146.39;36.85
40460;BME280;26164;51.138;16.952;2024-02-16T08:07:34;75351.66;;;-146.39;36.85
40460;BME280;26164;51.138;16.952;2024-02-16T08:10:01;75288.38;;;-146.39;36.39
40460;BME280;26164;51.138;16.952;2024-02-16T08:12:44;75249.59;;;-146.39;35.72
40460;BME280;26164;51.138;16.952;2024-02-16T08:15:27;75196.53;;;-146.39;35.82
40460;BME280;26164;51.138;16.952;2024-02-16T08:18:08;75188.38;;;-146.39;35.29
40460;BME280;26164;51.138;16.952;2024-02-16T08:20:59;75253.69;;;-146.39;36.04
40460;BME280;26164;51.138;16.952;2024-02-16T08:23:40;75204.72;;;-146.39;35.37
40460;BME280;26164;51.138;16.952;2024-02-16T08:26:21;75088.38;;;-146.39;34.67
40460;BME280;26164;51.138;16.952;2024-02-16T08:29:02;75133.28;;;-146.39;34.78
40460;BME280;26164;51.138;16.952;2024-02-16T08:31:42;75098.59;;;-146.39;34.31
40460;BME280;26164;51.138;16.952;2024-02-16T08:34:27;75106.75;;;-146.39;34.21
40460;BME280;26164;51.138;16.952;2024-02-16T08:37:07;75061.84;;;-146.39;33.63
40460;BME280;26164;51.138;16.952;2024-02-16T08:39:59;75059.81;;;-146.39;33.79
40460;BME280;26164;51.138;16.952;2024-02-16T08:42:42;74959.81;;;-146.39;33.12
40460;BME280;26164;51.138;16.952;2024-02-16T08:45:09;75041.44;;;-146.39;33.53
40460;BME280;26164;51.138;16.952;2024-02-16T08:47:36;75004.72;;;-146.39;33.39
40460;BME280;26164;51.138;16.952;2024-02-16T08:50:19;75037.38;;;-146.39;33.32
40460;BME280;26164;51.138;16.952;2024-02-16T08:53:00;75033.28;;;-146.39;33.15
40460;BME280;26164;51.138;16.952;2024-02-16T08:55:32;74959.81;;;-146.39;32.80
40460;BME280;26164;51.138;16.952;2024-02-16T08:57:58;74992.47;;;-146.39;33.06
40460;BME280;26164;51.138;16.952;2024-02-16T09:00:26;75006.75;;;-146.39;33.03
40460;BME280;26164;51.138;16.952;2024-02-16T09:02:55;75063.91;;;-146.39;33.58
40460;BME280;26164;51.138;16.952;2024-02-16T09:05:24;75012.88;;;-146.39;33.17
40460;BME280;26164;51.138;16.952;2024-02-16T09:07:50;74959.81;;;-146.39;32.85
40460;BME280;26164;51.138;16.952;2024-02-16T09:10:31;74933.28;;;-146.39;32.67
40460;BME280;26164;51.138;16.952;2024-02-16T09:12:59;74870.03;;;-146.39;32.22
40460;BME280;26164;51.138;16.952;2024-02-16T09:15:25;74919.00;;;-146.39;32.66
40460;BME280;26164;51.138;16.952;2024-02-16T09:17:55;74919.00;;;-146.39;32.54
40460;BME280;26164;51.138;16.952;2024-02-16T09:20:24;74827.19;;;-146.39;31.98
40460;BME280;26164;51.138;16.952;2024-02-16T09:22:55;74841.47;;;-146.39;32.06
40460;BME280;26164;51.138;16.952;2024-02-16T09:25:22;74927.16;;;-146.39;32.47
40460;BME280;26164;51.138;16.952;2024-02-16T09:27:52;74965.94;;;-146.39;32.69
40460;BME280;26164;51.138;16.952;2024-02-16T09:30:18;74894.53;;;-146.39;32.44
40460;BME280;26164;51.138;16.952;2024-02-16T09:32:46;74976.16;;;-146.39;32.91
40460;BME280;26164;51.138;16.952;2024-02-16T09:35:14;75057.78;;;-146.39;33.39
40460;BME280;26164;51.138;16.952;2024-02-16T09:37:40;74927.16;;;-146.39;32.70
40460;BME280;26164;51.138;16.952;2024-02-16T09:40:07;74959.81;;;-146.39;32.82
40460;BME280;26164;51.138;16.952;2024-02-16T09:42:40;74972.06;;;-146.39;33.03
40460;BME280;26164;51.138;16.952;2024-02-16T09:45:11;74910.84;;;-146.39;32.45
40460;BME280;26164;51.138;16.952;2024-02-16T09:47:45;74939.41;;;-146.39;32.74
40460;BME280;26164;51.138;16.952;2024-02-16T09:50:13;75016.97;;;-146.39;32.90
40460;BME280;26164;51.138;16.952;2024-02-16T09:52:49;74849.63;;;-146.39;32.00
40460;BME280;26164;51.138;16.952;2024-02-16T09:55:17;74884.31;;;-146.39;32.00
40460;BME280;26164;51.138;16.952;2024-02-16T09:58:01;74959.81;;;-146.39;32.50
40460;BME280;26164;51.138;16.952;2024-02-16T10:00:32;75008.78;;;-146.39;32.81
40460;BME280;26164;51.138;16.952;2024-02-16T10:02:58;74910.84;;;-146.39;32.21
40460;BME280;26164;51.138;16.952;2024-02-16T10:05:39;74847.59;;;-146.39;31.69
40460;BME280;26164;51.138;16.952;2024-02-16T10:08:16;74886.34;;;-146.39;32.12
40460;BME280;26164;51.138;16.952;2024-02-16T10:10:46;74841.47;;;-146.39;31.47
40460;BME280;26164;51.138;16.952;2024-02-16T10:13:31;74763.91;;;-146.39;31.40
40460;BME280;26164;51.138;16.952;2024-02-16T10:16:07;74835.34;;;-146.39;31.40
40460;BME280;26164;51.138;16.952;2024-02-16T10:18:50;74772.09;;;-146.39;31.44
40460;BME280;26164;51.138;16.952;2024-02-16T10:21:26;74882.28;;;-146.39;31.86
40460;BME280;26164;51.138;16.952;2024-02-16T10:24:07;74821.06;;;-146.39;31.34
40460;BME280;26164;51.138;16.952;2024-02-16T10:26:49;74931.25;;;-146.39;31.67
40460;BME280;26164;51.138;16.952;2024-02-16T10:29:18;74916.97;;;-146.39;31.70
40460;BME280;26164;51.138;16.952;2024-02-16T10:31:49;74931.25;;;-146.39;32.03
40460;BME280;26164;51.138;16.952;2024-02-16T10:34:21;74939.41;;;-146.39;31.82
40460;BME280;26164;51.138;16.952;2024-02-16T10:36:51;74800.66;;;-146.39;31.04
40460;BME280;26164;51.138;16.952;2024-02-16T10:39:22;74914.94;;;-146.39;31.47
40460;BME280;26164;51.138;16.952;2024-02-16T10:41:51;74837.38;;;-146.39;31.32
40460;BME280;26164;51.138;16.952;2024-02-16T10:44:43;74743.50;;;-146.39;30.62
40460;BME280;26164;51.138;16.952;2024-02-16T10:47:27;74719.03;;;-146.39;30.33
40460;BME280;26164;51.138;16.952;2024-02-16T10:49:53;74682.28;;;-146.39;29.96
40460;BME280;26164;51.138;16.952;2024-02-16T10:52:23;74653.72;;;-146.39;30.17
40460;BME280;26164;51.138;16.952;2024-02-16T10:54:52;74702.69;;;-146.39;30.51
40460;BME280;26164;51.138;16.952;2024-02-16T10:57:19;74714.94;;;-146.39;30.46
40460;BME280;26164;51.138;16.952;2024-02-16T10:59:46;74743.50;;;-146.39;30.54
40460;BME280;26164;51.138;16.952;2024-02-16T11:02:14;74780.25;;;-146.39;30.48
40460;BME280;26164;51.138;16.952;2024-02-16T11:04:40;74776.16;;;-146.39;30.60
40460;BME280;26164;51.138;16.952;2024-02-16T11:07:19;74719.03;;;-146.39;30.29
40460;BME280;26164;51.138;16.952;2024-02-16T11:09:46;74768.00;;;-146.39;30.50
40460;BME280;26164;51.138;16.952;2024-02-16T11:12:15;74670.06;;;-146.39;30.25
40460;BME280;26164;51.138;16.952;2024-02-16T11:14:42;74633.31;;;-146.39;30.20
40460;BME280;26164;51.138;16.952;2024-02-16T11:17:12;74598.63;;;-146.39;29.86
40460;BME280;26164;51.138;16.952;2024-02-16T11:19:43;74670.06;;;-146.39;29.98
40460;BME280;26164;51.138;16.952;2024-02-16T11:22:27;74688.41;;;-146.39;30.08
40460;BME280;26164;51.138;16.952;2024-02-16T11:25:08;74708.81;;;-146.39;30.27
40460;BME280;26164;51.138;16.952;2024-02-16T11:27:35;74531.31;;;-146.39;29.20
40460;BME280;26164;51.138;16.952;2024-02-16T11:30:16;74776.16;;;-146.39;30.52
40460;BME280;26164;51.138;16.952;2024-02-16T11:32:48;74731.28;;;-146.39;30.33
40460;BME280;26164;51.138;16.952;2024-02-16T11:36:08;74623.13;;;-146.39;30.19
40460;BME280;26164;51.138;16.952;2024-02-16T11:43:36;74727.19;;;-146.39;30.41
40460;BME280;26164;51.138;16.952;2024-02-16T11:46:22;74721.06;;;-146.39;30.68
40460;BME280;26164;51.138;16.952;2024-02-16T11:49:08;74661.91;;;-146.39;30.25
40460;BME280;26164;51.138;16.952;2024-02-16T11:51:51;74612.91;;;-146.39;30.23
40460;BME280;26164;51.138;16.952;2024-02-16T11:54:36;74637.41;;;-146.39;30.27
40460;BME280;26164;51.138;16.952;2024-02-16T12:01:16;74596.59;;;-146.39;29.69
40460;BME280;26164;51.138;16.952;2024-02-16T12:04:32;74694.53;;;-146.39;30.40
40460;BME280;26164;51.138;16.952;2024-02-16T12:07:19;74706.78;;;-146.39;30.61
40460;BME280;26164;51.138;16.952;2024-02-16T12:10:03;74657.81;;;-146.39;30.19
40460;BME280;26164;51.138;16.952;2024-02-16T12:13:30;74645.56;;;-146.39;30.17
40460;BME280;26164;51.138;16.952;2024-02-16T12:16:36;74527.22;;;-146.39;29.33
40460;BME280;26164;51.138;16.952;2024-02-16T12:19:43;74596.59;;;-146.39;29.75
40460;BME280;26164;51.138;16.952;2024-02-16T12:22:30;74484.38;;;-146.39;29.11
40460;BME280;26164;51.138;16.952;2024-02-16T12:25:24;74325.22;;;-146.39;28.60
40460;BME280;26164;51.138;16.952;2024-02-16T12:30:49;74482.34;;;-146.39;29.31
40460;BME280;26164;51.138;16.952;2024-02-16T12:33:37;74519.06;;;-146.39;29.28
40460;BME280;26164;51.138;16.952;2024-02-16T12:36:20;74584.34;;;-146.39;29.89
40460;BME280;26164;51.138;16.952;2024-02-16T12:39:06;74572.09;;;-146.39;29.64
40460;BME280;26164;51.138;16.952;2024-02-16T12:41:49;74425.19;;;-146.39;28.66
40460;BME280;26164;51.138;16.952;2024-02-16T12:44:33;74384.38;;;-146.39;28.57
40460;BME280;26164;51.138;16.952;2024-02-16T12:47:15;74294.63;;;-146.39;28.09
40460;BME280;26164;51.138;16.952;2024-02-16T12:50:11;74400.72;;;-146.39;28.59
40460;BME280;26164;51.138;16.952;2024-02-16T12:53:09;74447.63;;;-146.39;28.98
40460;BME280;26164;51.138;16.952;2024-02-16T12:55:44;74408.88;;;-146.39;28.85
40460;BME280;26164;51.138;16.952;2024-02-16T12:58:27;74290.53;;;-146.39;28.27
40460;BME280;26164;51.138;16.952;2024-02-16T13:01:33;74388.47;;;-146.39;28.72
40460;BME280;26164;51.138;16.952;2024-02-16T13:09:22;74106.91;;;-146.39;27.34
40460;BME280;26164;51.138;16.952;2024-02-16T13:15:05;74306.84;;;-146.39;28.21
40460;BME280;26164;51.138;16.952;2024-02-16T13:17:51;74431.31;;;-146.39;28.84
40460;BME280;26164;51.138;16.952;2024-02-16T13:20:25;74461.94;;;-146.39;28.96
40460;BME280;26164;51.138;16.952;2024-02-16T13:23:00;74474.16;;;-146.39;29.21
40460;BME280;26164;51.138;16.952;2024-02-16T13:26:03;74457.84;;;-146.39;29.21
40460;BME280;26164;51.138;16.952;2024-02-16T13:28:58;74445.59;;;-146.39;29.13
40460;BME280;26164;51.138;16.952;2024-02-16T13:39:25;74470.09;;;-146.39;29.42
40460;BME280;26164;51.138;16.952;2024-02-16T13:42:07;74443.56;;;-146.39;29.41
40460;BME280;26164;51.138;16.952;2024-02-16T13:45:03;74347.66;;;-146.39;28.63
40460;BME280;26164;51.138;16.952;2024-02-16T13:47:49;74425.19;;;-146.39;29.11
40460;BME280;26164;51.138;16.952;2024-02-16T13:50:36;74429.28;;;-146.39;29.07
40460;BME280;26164;51.138;16.952;2024-02-16T13:53:22;74264.00;;;-146.39;28.28
40460;BME280;26164;51.138;16.952;2024-02-16T13:55:51;74357.88;;;-146.39;28.65
40460;BME280;26164;51.138;16.952;2024-02-16T13:58:17;74345.63;;;-146.39;28.60